Time;durP1;ratioP1;P1;durP2;ratioP2;P2;SDS_P1;SDS_P2;PMS_P1;PMS_P2;Temp;Humidity;BMP_temperature;BMP_pressure;BME280_temperature;BME280_humidity;BME280_pressure;Samples;Min_cycle;Max_cycle;Signal;HPM_P1;HPM_P2
2022/10/25 00:02:25;;;;;;;10.90;3.28;;;;;;;15.10;nan;99893.38;5074477;28;20413;-77
2022/10/25 00:04:52;;;;;;;10.27;4.00;;;;;;;15.18;nan;99892.38;5058707;28;20517;-77
2022/10/25 00:07:22;;;;;;;10.75;3.05;;;;;;;15.20;nan;99890.88;5052964;28;20061;-78
2022/10/25 00:09:49;;;;;;;;;;;;;;;15.19;nan;99894.03;5053690;28;20079;-78
2022/10/25 00:12:16;;;;;;;9.52;3.15;;;;;;;15.24;nan;99902.16;5053166;28;19928;-77
2022/10/25 00:14:43;;;;;;;10.02;2.85;;;;;;;15.20;nan;99896.47;5059803;28;20055;-78
2022/10/25 00:17:10;;;;;;;10.88;3.60;;;;;;;15.22;nan;99891.31;5073590;28;20479;-77
2022/10/25 00:19:39;;;;;;;6.95;2.97;;;;;;;15.23;nan;99901.34;5073323;28;20063;-77
2022/10/25 00:22:06;;;;;;;10.50;3.15;;;;;;;15.25;nan;99903.81;5071926;28;20079;-77
2022/10/25 00:24:33;;;;;;;11.57;3.00;;;;;;;15.25;nan;99897.41;5073254;28;20056;-77
2022/10/25 00:27:01;;;;;;;6.82;2.28;;;;;;;15.26;nan;99904.63;5073200;28;20060;-76
2022/10/25 00:29:28;;;;;;;10.90;2.83;;;;;;;15.25;nan;99903.00;5073686;28;20057;-77
2022/10/25 00:31:55;;;;;;;10.25;2.67;;;;;;;15.22;nan;99910.13;5053260;28;20068;-77
2022/10/25 00:34:23;;;;;;;7.50;2.70;;;;;;;15.25;nan;99903.81;5053411;28;20405;-77
2022/10/25 00:36:51;;;;;;;12.05;2.65;;;;;;;15.30;nan;99895.13;5053540;28;20064;-77
2022/10/25 00:39:18;;;;;;;6.97;2.30;;;;;;;15.29;nan;99899.13;5053380;28;20057;-78
2022/10/25 00:41:46;;;;;;;9.32;3.03;;;;;;;15.40;nan;99900.19;5052750;28;20493;-77
2022/10/25 00:44:50;;;;;;;12.10;2.50;;;;;;;15.37;nan;99905.72;5053537;28;20057;-77
2022/10/25 00:47:31;;;;;;;6.57;2.05;;;;;;;15.35;nan;99908.91;5052972;28;20067;-78
2022/10/25 00:50:03;;;;;;;7.80;2.85;;;;;;;15.34;nan;99912.88;5058218;28;20052;-77
2022/10/25 00:52:35;;;;;;;7.32;2.63;;;;;;;15.43;nan;99904.25;5060973;28;20053;-77
2022/10/25 00:55:09;;;;;;;5.80;3.03;;;;;;;15.44;nan;99917.13;5052665;28;20080;-77
2022/10/25 00:57:41;;;;;;;6.65;2.33;;;;;;;15.39;nan;99914.59;5052821;28;20486;-76
2022/10/25 01:00:12;;;;;;;6.95;2.05;;;;;;;15.47;nan;99916.41;5062564;28;20063;-76
2022/10/25 01:02:39;;;;;;;5.53;2.28;;;;;;;15.47;nan;99918.41;5072234;28;20064;-77
2022/10/25 01:05:08;;;;;;;10.13;2.20;;;;;;;15.51;nan;99922.94;5053316;28;20064;-78
2022/10/25 01:07:37;;;;;;;6.40;1.92;;;;;;;15.57;nan;99915.88;5052927;28;20053;-76
2022/10/25 01:10:05;;;;;;;8.88;2.85;;;;;;;15.53;nan;99916.97;5052355;28;20413;-77
2022/10/25 01:12:34;;;;;;;7.32;2.20;;;;;;;15.57;nan;99924.28;5052478;28;20056;-77
2022/10/25 01:15:02;;;;;;;8.05;2.53;;;;;;;15.50;nan;99928.91;5052236;28;20060;-76
2022/10/25 01:17:38;;;;;;;4.78;2.00;;;;;;;15.57;nan;99932.72;5052244;28;20053;-76
2022/10/25 01:20:42;;;;;;;9.98;2.40;;;;;;;15.51;nan;99930.53;5055299;28;20060;-77
2022/10/25 01:23:27;;;;;;;5.80;2.50;;;;;;;15.61;nan;99930.00;5032427;28;20072;-77
2022/10/25 01:26:24;;;;;;;6.82;2.50;;;;;;;15.69;nan;99923.41;5032946;28;20421;-77
2022/10/25 01:29:11;;;;;;;6.15;2.10;;;;;;;15.66;nan;99937.34;5032949;28;20061;-77
2022/10/25 01:31:49;;;;;;;8.02;2.15;;;;;;;15.59;nan;99918.31;5032672;28;20053;-77
2022/10/25 01:34:25;;;;;;;7.00;2.25;;;;;;;15.61;nan;99935.63;5032440;28;20054;-77
2022/10/25 01:37:00;;;;;;;6.57;2.13;;;;;;;15.68;nan;99930.16;5049166;28;20057;-77
2022/10/25 01:39:33;;;;;;;7.07;1.95;;;;;;;15.75;nan;99938.81;5032385;28;20065;-75
2022/10/25 01:42:06;;;;;;;8.45;2.45;;;;;;;15.68;nan;99944.22;5032098;28;20064;-76
2022/10/25 01:44:43;;;;;;;5.45;1.85;;;;;;;15.69;nan;99936.63;5038525;28;20057;-76
2022/10/25 01:47:18;;;;;;;5.63;2.15;;;;;;;15.71;nan;99945.50;5052240;28;20057;-77
2022/10/25 01:49:50;;;;;;;7.30;2.10;;;;;;;15.73;nan;99943.19;5052016;28;20497;-76
2022/10/25 01:52:20;;;;;;;6.85;2.38;;;;;;;15.83;nan;99948.22;5052337;28;20512;-75
2022/10/25 01:54:48;;;;;;;5.70;2.22;;;;;;;15.88;nan;99944.34;5033995;28;20049;-77
2022/10/25 01:57:29;;;;;;;5.72;2.22;;;;;;;15.90;nan;99937.19;5052178;28;20418;-77
2022/10/25 02:00:08;;;;;;;6.25;1.90;;;;;;;15.82;nan;99941.81;5060311;28;20056;-77
2022/10/25 02:02:49;;;;;;;7.57;2.40;;;;;;;15.89;nan;99943.97;5046352;28;20512;-76
2022/10/25 02:05:23;;;;;;;11.52;2.40;;;;;;;15.81;nan;99947.78;5051967;28;20386;-77
2022/10/25 02:08:00;;;;;;;5.53;2.20;;;;;;;15.88;nan;99949.97;5052517;28;20053;-77
2022/10/25 02:10:32;;;;;;;5.38;1.95;;;;;;;15.92;nan;99959.31;5051891;28;20424;-76
2022/10/25 02:13:04;;;;;;;7.88;2.10;;;;;;;15.93;nan;99952.50;5051999;28;20065;-76
2022/10/25 02:15:36;;;;;;;7.30;2.05;;;;;;;15.76;nan;99945.25;5051217;28;20504;-76
2022/10/25 02:18:09;;;;;;;8.80;2.25;;;;;;;15.86;nan;99953.13;5051919;28;20413;-76
2022/10/25 02:20:42;;;;;;;6.85;2.05;;;;;;;15.92;nan;99956.50;5035853;28;20057;-76
2022/10/25 02:23:09;;;;;;;7.93;2.45;;;;;;;15.90;nan;99951.22;5032043;28;20064;-76
2022/10/25 02:25:39;;;;;;;6.22;2.22;;;;;;;15.95;nan;99952.94;5031856;28;20057;-77
2022/10/25 02:28:10;;;;;;;7.80;2.55;;;;;;;15.97;nan;99956.19;5032381;28;20057;-76
2022/10/25 02:30:40;;;;;;;7.55;2.30;;;;;;;15.98;nan;99946.59;5043713;28;20057;-77
2022/10/25 02:33:09;;;;;;;6.82;1.92;;;;;;;16.00;nan;99958.28;5051396;28;20064;-78
2022/10/25 02:35:36;;;;;;;4.03;1.70;;;;;;;16.01;nan;99959.91;5052032;28;20053;-77
2022/10/25 02:38:04;;;;;;;7.55;2.30;;;;;;;16.02;nan;99953.94;5055466;28;20057;-77
2022/10/25 02:40:31;;;;;;;6.60;1.95;;;;;;;16.06;nan;99954.00;5055278;28;20064;-77
2022/10/25 02:46:23;;;;;;;6.10;1.90;;;;;;;16.05;nan;99955.19;5052514;28;20048;-77
2022/10/25 02:48:52;;;;;;;5.30;1.90;;;;;;;16.09;nan;99958.09;5058095;28;20428;-76
2022/10/25 02:51:19;;;;;;;7.32;1.88;;;;;;;16.10;nan;99957.72;5070084;28;20063;-77
2022/10/25 02:53:47;;;;;;;7.45;2.10;;;;;;;16.09;nan;99963.72;5075825;28;20429;-76
2022/10/25 02:56:16;;;;;;;6.55;1.80;;;;;;;16.10;nan;99959.72;5054455;28;20520;-76
2022/10/25 02:58:45;;;;;;;4.95;1.83;;;;;;;16.11;nan;99961.38;5055237;28;20057;-77
2022/10/25 03:01:13;;;;;;;7.47;1.77;;;;;;;16.13;nan;99957.00;5073548;28;20480;-77
2022/10/25 03:03:40;;;;;;;6.25;1.60;;;;;;;16.06;nan;99959.63;5074807;28;20554;-77
2022/10/25 03:06:10;;;;;;;8.73;1.92;;;;;;;15.96;nan;99963.00;5057792;28;20064;-76
2022/10/25 03:08:38;;;;;;;7.22;2.28;;;;;;;16.07;nan;99964.06;5054503;28;20064;-76
2022/10/25 03:11:06;;;;;;;5.22;2.30;;;;;;;16.08;nan;99962.06;5052824;28;20060;-77
2022/10/25 03:13:34;;;;;;;6.17;1.87;;;;;;;16.10;nan;99966.16;5050764;28;20053;-78
2022/10/25 03:16:01;;;;;;;9.13;1.98;;;;;;;16.19;nan;99968.75;5049457;28;20053;-76
2022/10/25 03:18:29;;;;;;;7.22;2.55;;;;;;;16.18;nan;99962.34;5054517;28;20056;-76
2022/10/25 03:20:57;;;;;;;8.15;2.22;;;;;;;16.19;nan;99971.56;5060028;28;20052;-77
2022/10/25 03:23:26;;;;;;;6.00;2.20;;;;;;;16.21;nan;99972.03;5069731;28;20048;-77
2022/10/25 03:25:54;;;;;;;6.18;2.03;;;;;;;16.22;nan;99976.47;5051235;28;20065;-78
2022/10/25 03:28:22;;;;;;;6.93;2.30;;;;;;;16.19;nan;99975.22;5071357;28;20500;-77
2022/10/25 03:30:49;;;;;;;9.88;2.38;;;;;;;16.26;nan;99976.56;5036877;28;20056;-77
2022/10/25 03:33:16;;;;;;;6.80;1.92;;;;;;;16.23;nan;99978.94;5054626;28;20132;-77
2022/10/25 03:35:44;;;;;;;5.88;2.08;;;;;;;16.22;nan;99985.72;5053852;28;20084;-77
2022/10/25 03:38:11;;;;;;;8.82;2.20;;;;;;;16.24;nan;99988.97;5054398;28;20057;-77
2022/10/25 03:40:40;;;;;;;5.65;2.30;;;;;;;16.29;nan;99981.44;5054534;28;20049;-77
2022/10/25 03:43:07;;;;;;;6.70;1.92;;;;;;;16.33;nan;99982.34;5052604;28;20056;-77
2022/10/25 03:45:34;;;;;;;8.55;1.98;;;;;;;16.23;nan;99983.72;5053974;28;20059;-77
2022/10/25 03:48:01;;;;;;;6.85;2.65;;;;;;;16.30;nan;99981.09;5053272;28;20509;-78
2022/10/25 03:50:29;;;;;;;9.60;1.98;;;;;;;16.30;nan;99985.91;5054111;28;20056;-77
2022/10/25 03:52:56;;;;;;;6.88;2.50;;;;;;;16.23;nan;99986.53;5051703;28;20061;-76
2022/10/25 03:55:40;;;;;;;7.57;2.08;;;;;;;16.27;nan;99997.84;5054291;28;20049;-77
2022/10/25 04:08:03;;;;;;;7.35;2.58;;;;;;;16.18;nan;100001.66;4985389;28;20057;-78
2022/10/25 04:14:16;;;;;;;8.70;2.50;;;;;;;16.19;nan;99996.84;4977103;28;20062;-77
2022/10/25 04:17:31;;;;;;;7.47;3.15;;;;;;;16.18;nan;100006.47;5000693;28;20073;-77
2022/10/25 04:20:36;;;;;;;8.77;2.90;;;;;;;16.22;nan;100013.81;5018123;28;20061;-76
2022/10/25 04:26:22;;;;;;;5.40;2.67;;;;;;;16.13;nan;100013.19;5014548;28;20421;-76
2022/10/25 04:39:07;;;;;;;6.55;2.78;;;;;;;16.16;nan;100020.88;5012910;28;20069;-77
2022/10/25 04:41:45;;;;;;;6.55;2.60;;;;;;;16.09;nan;100028.34;5014370;28;20061;-76
2022/10/25 04:44:16;;;;;;;8.60;2.70;;;;;;;16.02;nan;100024.16;5053914;28;20064;-77
2022/10/25 04:47:03;;;;;;;7.30;2.70;;;;;;;15.93;nan;100028.31;5057771;28;20056;-76
2022/10/25 04:59:27;;;;;;;5.80;2.70;;;;;;;15.86;nan;100043.00;5032182;28;20050;-76
2022/10/25 05:02:09;;;;;;;10.32;2.60;;;;;;;15.82;nan;100042.91;5053782;28;20057;-77
2022/10/25 05:07:36;;;;;;;6.22;2.10;;;;;;;15.94;nan;100041.22;4972957;28;20058;-77
2022/10/25 05:10:29;;;;;;;;;;;;;;;;;;;;;
2022/10/25 05:17:03;;;;;;;4.80;2.38;;;;;;;15.94;nan;100055.25;5024538;28;20072;-78
2022/10/25 05:19:32;;;;;;;5.68;2.30;;;;;;;16.02;nan;100046.66;5012383;28;20062;-77
2022/10/25 05:25:14;;;;;;;6.93;2.97;;;;;;;16.05;nan;100050.72;4972454;28;20057;-77
2022/10/25 05:27:51;;;;;;;7.25;2.63;;;;;;;16.01;nan;100058.22;4978151;28;20057;-76
2022/10/25 05:31:16;;;;;;;6.20;2.60;;;;;;;16.09;nan;100056.44;5011970;28;20061;-77
2022/10/25 05:33:51;;;;;;;5.45;2.35;;;;;;;16.12;nan;100059.31;5009420;28;20069;-77
2022/10/25 05:48:38;;;;;;;9.07;2.10;;;;;;;15.99;nan;100064.22;5067902;28;20060;-77
2022/10/25 06:10:44;;;;;;;6.20;2.70;;;;;;;15.96;nan;100095.03;5031108;28;20065;-77
2022/10/25 06:17:16;;;;;;;8.57;3.42;;;;;;;15.99;nan;100099.91;4956764;29;20452;-78
2022/10/25 06:20:04;;;;;;;6.28;2.78;;;;;;;15.92;nan;100096.94;5056141;28;20055;-76
2022/10/25 06:22:57;;;;;;;6.25;3.30;;;;;;;16.01;nan;100092.75;5078378;28;20052;-77
2022/10/25 06:26:07;;;;;;;4.55;2.22;;;;;;;15.97;nan;100102.28;5077270;28;20408;-72
2022/10/25 06:28:46;;;;;;;5.05;2.42;;;;;;;15.96;nan;100109.09;5075960;28;20416;-74
2022/10/25 06:31:34;;;;;;;5.95;3.15;;;;;;;15.94;nan;100115.06;5076684;28;20052;-73
2022/10/25 06:34:19;;;;;;;;;;;;;;;;;;;;;
2022/10/25 06:39:36;;;;;;;7.22;2.90;;;;;;;16.10;nan;100128.28;5075006;28;20064;-73
2022/10/25 06:45:18;;;;;;;10.90;3.00;;;;;;;16.33;nan;100139.75;5053545;28;20056;-80
2022/10/25 06:47:52;;;;;;;8.70;2.65;;;;;;;16.42;nan;100146.84;5070585;28;20071;-73
2022/10/25 06:50:35;;;;;;;6.88;2.75;;;;;;;16.35;nan;100145.81;5075814;28;20425;-74
2022/10/25 06:53:15;;;;;;;6.00;2.72;;;;;;;16.26;nan;100148.81;5075104;28;20063;-77
2022/10/25 06:55:54;;;;;;;6.28;2.35;;;;;;;16.34;nan;100150.63;5076272;28;20057;-75
2022/10/25 06:58:29;;;;;;;8.77;2.65;;;;;;;16.37;nan;100154.72;5076550;28;20060;-76
2022/10/25 07:01:14;;;;;;;7.65;2.80;;;;;;;16.24;nan;100165.22;5060218;28;20061;-76
2022/10/25 07:03:46;;;;;;;6.57;3.45;;;;;;;16.11;nan;100163.66;5056484;28;20065;-76
2022/10/25 07:06:22;;;;;;;5.20;3.10;;;;;;;16.21;nan;100168.72;5056339;28;20057;-76
2022/10/25 07:09:01;;;;;;;7.28;2.83;;;;;;;16.12;nan;100176.53;5076213;28;20060;-76
2022/10/25 07:11:40;;;;;;;7.72;3.08;;;;;;;16.10;nan;100173.25;5075912;28;20083;-75
2022/10/25 07:31:05;;;;;;;6.93;4.20;;;;;;;15.98;nan;100199.41;4822404;29;20420;-72
2022/10/25 07:43:18;;;;;;;6.63;3.78;;;;;;;16.28;nan;100202.66;4957525;28;20068;-74
2022/10/25 07:45:47;;;;;;;8.98;3.35;;;;;;;16.12;nan;100201.81;5063846;28;20060;-74
2022/10/25 07:48:42;;;;;;;7.38;3.38;;;;;;;16.48;nan;100212.03;5076605;28;20059;-88
2022/10/25 08:04:43;;;;;;;;;;;;;;;;;;;;;
2022/10/25 08:13:57;;;;;;;6.28;3.13;;;;;;;17.04;nan;100220.31;5067569;28;20464;-89
2022/10/25 08:17:21;;;;;;;;;;;;;;;;;;;;;
2022/10/25 08:37:16;;;;;;;9.10;3.20;;;;;;;17.51;nan;100223.41;4964786;28;20058;-81
2022/10/25 09:36:42;;;;;;;6.88;2.15;;;;;;;26.64;nan;100244.09;5032528;28;20056;-84
2022/10/25 09:40:23;;;;;;;;;;;;;;;;;;;;;
2022/10/25 09:46:18;;;;;;;4.25;1.63;;;;;;;23.01;nan;100263.56;4995047;28;20093;-83
2022/10/25 09:49:18;;;;;;;4.82;1.70;;;;;;;24.51;nan;100253.91;5022700;28;20533;-83
2022/10/25 09:58:40;;;;;;;3.92;1.65;;;;;;;24.00;nan;100263.06;5037808;28;20064;-83
2022/10/25 10:07:59;;;;;;;4.60;1.65;;;;;;;24.59;nan;100273.78;4956621;29;20058;-83
2022/10/25 10:11:05;;;;;;;4.30;2.03;;;;;;;23.75;nan;100280.16;4953103;28;20531;-82
2022/10/25 10:17:03;;;;;;;4.97;2.22;;;;;;;24.20;nan;100284.13;5066427;28;20055;-82
2022/10/25 10:22:30;;;;;;;3.25;1.80;;;;;;;23.93;nan;100283.81;5046309;28;20059;-84
2022/10/25 10:25:44;;;;;;;5.47;2.00;;;;;;;23.42;nan;100299.31;5076864;28;20056;-83
2022/10/25 10:28:33;;;;;;;3.50;1.50;;;;;;;22.87;nan;100298.44;5044790;28;20093;-82
2022/10/25 10:31:42;;;;;;;4.45;2.03;;;;;;;22.81;nan;100296.41;5074889;28;20075;-82
2022/10/25 10:34:35;;;;;;;6.22;2.05;;;;;;;22.53;nan;100306.44;5077199;28;20060;-83
2022/10/25 10:40:43;;;;;;;6.97;2.83;;;;;;;24.97;nan;100309.00;5036241;28;20145;-81
2022/10/25 10:50:31;;;;;;;;;;;;;;;;;;;;;
2022/10/25 11:34:15;;;;;;;5.03;1.87;;;;;;;25.75;nan;100312.44;4989258;28;20069;-81
2022/10/25 11:37:40;;;;;;;4.20;1.92;;;;;;;26.08;nan;100308.03;5017952;28;20505;-82
2022/10/25 11:40:47;;;;;;;3.65;1.67;;;;;;;25.10;nan;100312.16;5082105;28;20416;-81
2022/10/25 11:50:38;;;;;;;6.53;1.83;;;;;;;23.34;nan;100318.38;5024124;28;20055;-80
2022/10/25 11:57:28;;;;;;;4.75;1.70;;;;;;;23.14;nan;100317.16;5039910;28;20556;-81
2022/10/25 12:03:53;;;;;;;;;;;;;;;;;;;;;
2022/10/25 12:20:37;;;;;;;3.47;3.17;;;;;;;29.42;nan;100301.25;4958341;28;20059;-80
2022/10/25 12:23:22;;;;;;;3.88;3.28;;;;;;;29.71;nan;100299.28;5058227;28;20083;-80
2022/10/25 12:29:38;;;;;;;6.20;3.50;;;;;;;29.44;nan;100293.81;5038069;28;20521;-79
2022/10/25 12:51:57;;;;;;;2.63;1.40;;;;;;;28.21;nan;100309.25;4972814;28;20054;-80
2022/10/25 13:01:42;;;;;;;3.95;1.70;;;;;;;25.57;nan;100303.25;4977598;28;20050;-79
2022/10/25 13:07:41;;;;;;;4.72;1.88;;;;;;;24.49;nan;100312.50;5033799;28;20064;-79
2022/10/25 13:35:33;;;;;;;;;;;;;;;;;;;;;
2022/10/25 13:38:19;;;;;;;4.95;1.80;;;;;;;23.29;nan;100311.09;5074909;28;20052;-79
2022/10/25 13:41:16;;;;;;;6.07;2.25;;;;;;;22.78;nan;100312.19;5077310;28;20056;-78
2022/10/25 13:54:41;;;;;;;3.50;1.92;;;;;;;21.80;nan;100307.28;4987725;28;20061;-79
2022/10/25 13:57:50;;;;;;;5.43;2.08;;;;;;;21.35;nan;100309.34;5001570;28;20076;-80
2022/10/25 14:01:19;;;;;;;6.25;2.25;;;;;;;21.22;nan;100311.66;5014240;28;20054;-79
2022/10/25 14:04:27;;;;;;;3.95;1.73;;;;;;;20.88;nan;100313.78;4941544;28;20067;-78
2022/10/25 14:07:34;;;;;;;5.57;2.22;;;;;;;20.76;nan;100317.69;5095326;28;20052;-79
2022/10/25 14:10:23;;;;;;;3.35;2.10;;;;;;;20.82;nan;100318.16;5055497;28;20048;-78
2022/10/25 14:13:31;;;;;;;5.75;2.15;;;;;;;20.85;nan;100314.53;5055455;28;20505;-78
2022/10/25 14:16:18;;;;;;;5.82;2.17;;;;;;;20.43;nan;100312.81;5054986;28;20148;-78
2022/10/25 14:22:05;;;;;;;3.88;1.40;;;;;;;20.15;nan;100314.09;5073292;28;20060;-78
2022/10/25 14:45:28;;;;;;;5.78;1.63;;;;;;;19.55;nan;100308.34;4886615;29;19916;-78
2022/10/25 14:47:58;;;;;;;5.72;1.77;;;;;;;19.52;nan;100297.81;5039060;28;20056;-78
2022/10/25 14:50:27;;;;;;;2.22;1.30;;;;;;;19.50;nan;100303.03;5061668;28;20061;-78
2022/10/25 14:52:54;;;;;;;3.33;1.55;;;;;;;19.56;nan;100305.16;5063876;28;20053;-78
2022/10/25 14:55:29;;;;;;;6.95;1.45;;;;;;;19.55;nan;100300.72;5061090;28;20065;-78
2022/10/25 14:58:03;;;;;;;2.25;1.20;;;;;;;19.46;nan;100308.63;5058353;28;20060;-79
2022/10/25 15:00:34;;;;;;;3.72;1.63;;;;;;;19.53;nan;100305.09;5044297;28;20065;-78
2022/10/25 15:03:09;;;;;;;4.38;1.27;;;;;;;19.41;nan;100309.75;5052840;28;20428;-78
2022/10/25 15:05:44;;;;;;;6.38;1.40;;;;;;;19.37;nan;100308.88;5083160;28;20060;-80
2022/10/25 15:08:18;;;;;;;5.15;1.60;;;;;;;19.32;nan;100306.41;5066993;28;20061;-78
2022/10/25 15:10:50;;;;;;;3.13;1.15;;;;;;;19.21;nan;100297.75;5060869;28;20053;-78
2022/10/25 15:13:26;;;;;;;4.10;1.70;;;;;;;19.14;nan;100300.44;5062148;28;20083;-78
2022/10/25 15:15:59;;;;;;;6.10;1.52;;;;;;;19.14;nan;100297.59;5061765;28;20065;-78
2022/10/25 15:24:51;;;;;;;6.25;1.50;;;;;;;19.04;nan;100295.41;4954092;28;20081;-82
2022/10/25 15:27:30;;;;;;;3.33;1.30;;;;;;;19.02;nan;100293.00;4942914;29;20064;-81
2022/10/25 15:29:59;;;;;;;2.40;1.02;;;;;;;18.93;nan;100303.69;5031998;28;20056;-79
2022/10/25 15:32:36;;;;;;;5.82;1.67;;;;;;;18.94;nan;100288.41;5063957;28;20064;-83
2022/10/25 15:35:32;;;;;;;3.80;1.42;;;;;;;18.80;nan;100299.44;5061418;28;20048;-80
2022/10/25 15:38:05;;;;;;;2.50;1.13;;;;;;;18.86;nan;100297.94;5059894;28;20056;-75
2022/10/25 15:40:40;;;;;;;4.18;1.80;;;;;;;18.75;nan;100302.50;5060466;28;20068;-75
2022/10/25 15:43:09;;;;;;;3.33;1.67;;;;;;;18.67;nan;100296.75;5059699;28;20057;-77
2022/10/25 15:46:19;;;;;;;;;;;;;;;;;;;;;
2022/10/25 15:48:51;;;;;;;4.03;1.73;;;;;;;18.54;nan;100292.47;5076711;28;20512;-77
2022/10/25 15:55:25;;;;;;;7.32;1.50;;;;;;;18.29;nan;100288.31;4985952;28;20053;-79
2022/10/25 16:18:37;;;;;;;5.72;1.85;;;;;;;17.64;nan;100290.53;4996199;28;20053;-81
2022/10/25 16:21:07;;;;;;;5.13;2.15;;;;;;;17.53;nan;100288.63;5071259;28;20053;-80
2022/10/25 16:26:36;;;;;;;6.28;2.58;;;;;;;17.37;nan;100300.75;5040357;28;20065;-77
2022/10/25 16:29:10;;;;;;;5.75;1.85;;;;;;;17.28;nan;100299.28;5065682;28;20500;-78
2022/10/25 16:31:48;;;;;;;5.28;2.30;;;;;;;17.16;nan;100303.03;5062716;28;20414;-78
2022/10/25 16:37:11;;;;;;;8.77;5.35;;;;;;;16.99;nan;100293.75;5059366;28;20280;-80
2022/10/25 16:39:50;;;;;;;8.32;5.65;;;;;;;16.95;nan;100292.84;5074048;28;20057;-78
2022/10/25 16:42:37;;;;;;;14.02;6.45;;;;;;;16.86;nan;100295.00;5075044;28;20057;-79
2022/10/25 16:45:15;;;;;;;3.88;2.08;;;;;;;16.75;nan;100297.50;5075957;28;20061;-79
2022/10/25 16:47:45;;;;;;;7.97;3.65;;;;;;;16.64;nan;100302.84;5086426;28;20063;-79
2022/10/25 16:50:13;;;;;;;5.90;2.50;;;;;;;16.57;nan;100297.03;5094732;28;20052;-80
2022/10/25 16:52:42;;;;;;;6.80;2.53;;;;;;;16.49;nan;100298.00;5093643;28;20036;-79
2022/10/25 16:55:16;;;;;;;5.13;1.90;;;;;;;16.42;nan;100295.81;5093803;28;20062;-79
2022/10/25 16:57:45;;;;;;;5.63;2.00;;;;;;;16.33;nan;100305.56;5094035;28;20047;-79
2022/10/25 17:00:15;;;;;;;4.70;2.35;;;;;;;16.26;nan;100294.16;5086578;28;20053;-79
2022/10/25 17:03:16;;;;;;;4.68;2.47;;;;;;;16.16;nan;100296.25;5077036;28;20042;-79
2022/10/25 17:06:30;;;;;;;5.50;2.22;;;;;;;16.06;nan;100293.97;5094246;28;20056;-79
2022/10/25 17:09:28;;;;;;;7.63;2.03;;;;;;;16.00;nan;100287.78;5081849;28;20056;-79
2022/10/25 17:15:22;;;;;;;5.75;1.85;;;;;;;15.70;nan;100290.03;5011424;28;20050;-78
2022/10/25 17:18:01;;;;;;;3.47;2.03;;;;;;;15.60;nan;100294.16;5089922;28;20064;-79
2022/10/25 17:21:07;;;;;;;8.50;1.80;;;;;;;15.42;nan;100290.78;5094836;28;20056;-79
2022/10/25 17:37:24;;;;;;;6.88;2.10;;;;;;;14.84;nan;100300.44;5022532;28;20053;-79
2022/10/25 17:43:15;;;;;;;7.03;1.88;;;;;;;14.60;nan;100288.81;5052646;28;20053;-78
2022/10/25 18:12:29;;;;;;;11.32;4.68;;;;;;;13.95;nan;100291.22;5038032;28;20059;-76
2022/10/25 18:15:48;;;;;;;7.55;3.97;;;;;;;13.93;nan;100289.91;5069109;28;20049;-77
2022/10/25 18:18:22;;;;;;;9.93;5.05;;;;;;;13.81;nan;100291.47;5007373;28;20077;-77
2022/10/25 18:20:53;;;;;;;15.68;9.00;;;;;;;13.77;nan;100290.53;5007678;28;20058;-79
2022/10/25 18:26:31;;;;;;;13.60;5.53;;;;;;;13.67;nan;100288.13;5021667;28;20061;-78
2022/10/25 18:38:55;;;;;;;11.75;7.05;;;;;;;13.44;nan;100287.63;4944190;29;20067;-81
2022/10/25 18:42:11;;;;;;;13.40;7.53;;;;;;;13.44;nan;100295.19;4947252;29;20055;-81
2022/10/25 18:48:45;;;;;;;6.10;4.28;;;;;;;13.27;nan;100288.53;4863414;29;20426;-78
2022/10/25 18:58:46;;;;;;;;;;;;;;;;;;;;;
2022/10/25 19:01:38;;;;;;;6.70;2.33;;;;;;;13.09;nan;100293.38;5014649;28;20494;-79
2022/10/25 19:04:11;;;;;;;6.95;2.40;;;;;;;13.05;nan;100288.78;5054979;28;20068;-80
2022/10/25 19:07:01;;;;;;;5.28;2.60;;;;;;;13.02;nan;100287.47;5056041;28;20045;-76
2022/10/25 19:09:32;;;;;;;4.78;2.22;;;;;;;12.98;nan;100287.31;5054990;28;20056;-76
2022/10/25 19:12:00;;;;;;;6.85;2.83;;;;;;;12.93;nan;100286.69;5062267;28;20060;-77
2022/10/25 19:14:53;;;;;;;4.10;2.00;;;;;;;12.90;nan;100281.78;5055519;28;20520;-78
2022/10/25 19:17:29;;;;;;;8.38;3.00;;;;;;;12.90;nan;100285.38;5056417;28;20470;-77
2022/10/25 19:20:46;;;;;;;7.93;2.17;;;;;;;12.82;nan;100285.41;5058675;28;20049;-78
2022/10/25 19:23:31;;;;;;;9.82;2.58;;;;;;;12.73;nan;100282.66;5057913;28;20064;-78
2022/10/25 19:26:18;;;;;;;6.57;2.60;;;;;;;12.70;nan;100277.72;5058457;28;20071;-80
2022/10/25 19:31:57;;;;;;;6.53;2.40;;;;;;;12.59;nan;100280.88;5051566;28;20478;-78
2022/10/25 19:34:35;;;;;;;3.65;1.80;;;;;;;12.60;nan;100276.13;5059724;28;20060;-83
2022/10/25 19:37:11;;;;;;;4.70;2.33;;;;;;;12.57;nan;100269.22;5062788;28;20061;-81
2022/10/25 19:39:47;;;;;;;6.03;2.53;;;;;;;12.53;nan;100276.59;5054752;28;20053;-79
2022/10/25 19:42:21;;;;;;;8.25;2.22;;;;;;;12.51;nan;100273.31;5060211;28;20060;-82
2022/10/25 19:44:50;;;;;;;5.97;2.00;;;;;;;12.50;nan;100282.88;5060717;28;20410;-78
2022/10/25 19:47:18;;;;;;;11.90;2.80;;;;;;;12.47;nan;100283.53;5062163;28;20056;-78
2022/10/25 19:52:43;;;;;;;9.18;2.35;;;;;;;12.39;nan;100284.38;5026198;28;20049;-81
2022/10/25 19:58:13;;;;;;;5.80;2.33;;;;;;;12.32;nan;100267.28;5012915;28;20430;-84
2022/10/25 20:01:02;;;;;;;4.15;2.00;;;;;;;12.27;nan;100270.28;5057539;28;20060;-84
2022/10/25 20:03:35;;;;;;;4.35;2.58;;;;;;;12.19;nan;100267.16;5060346;28;20057;-84
2022/10/25 20:06:35;;;;;;;6.60;2.50;;;;;;;12.19;nan;100258.78;5064880;28;20065;-85
2022/10/25 20:12:19;;;;;;;10.00;3.85;;;;;;;12.12;nan;100255.66;5021209;28;19922;-84
2022/10/25 20:15:00;;;;;;;9.93;4.28;;;;;;;12.05;nan;100260.91;5059215;28;20064;-83
2022/10/25 20:17:34;;;;;;;6.63;3.45;;;;;;;11.98;nan;100252.22;5060747;28;20057;-84
2022/10/25 20:20:41;;;;;;;4.85;2.70;;;;;;;11.98;nan;100247.47;5059476;28;20068;-84
2022/10/25 20:23:18;;;;;;;8.93;3.55;;;;;;;11.95;nan;100244.53;5050137;28;20060;-86
2022/10/25 20:25:46;;;;;;;5.40;2.95;;;;;;;11.91;nan;100254.72;5060586;28;20053;-87
2022/10/25 20:28:46;;;;;;;5.25;3.00;;;;;;;11.90;nan;100251.06;5058647;28;20064;-86
2022/10/25 20:31:27;;;;;;;9.80;2.97;;;;;;;11.86;nan;100258.44;5046430;28;20049;-85
2022/10/25 20:34:04;;;;;;;6.57;3.33;;;;;;;11.83;nan;100253.53;5059807;28;20052;-86
2022/10/25 20:36:51;;;;;;;6.15;3.15;;;;;;;11.81;nan;100257.78;5060189;28;20056;-86
2022/10/25 20:39:20;;;;;;;4.53;2.80;;;;;;;11.77;nan;100260.41;5040068;28;20064;-85
2022/10/25 20:41:49;;;;;;;10.02;4.10;;;;;;;11.77;nan;100255.63;5051566;28;20057;-85
2022/10/25 20:44:36;;;;;;;6.90;3.42;;;;;;;11.74;nan;100249.91;5037815;28;20053;-85
2022/10/25 20:47:10;;;;;;;7.97;2.88;;;;;;;11.70;nan;100255.31;5065786;28;20064;-80
2022/10/25 20:49:42;;;;;;;4.20;2.53;;;;;;;11.69;nan;100253.66;5078672;28;20060;-81
2022/10/25 20:52:10;;;;;;;5.72;2.53;;;;;;;11.67;nan;100261.53;5056750;28;20064;-77
2022/10/25 20:55:26;;;;;;;10.02;3.13;;;;;;;11.64;nan;100272.56;5058815;28;20060;-77
2022/10/25 20:58:03;;;;;;;5.28;2.42;;;;;;;11.60;nan;100269.59;4994396;28;20078;-77
2022/10/25 21:00:57;;;;;;;7.15;2.70;;;;;;;11.59;nan;100267.97;5040342;28;20634;-77
2022/10/25 21:03:30;;;;;;;6.97;3.28;;;;;;;11.56;nan;100265.81;5053840;28;20064;-77
2022/10/25 21:06:06;;;;;;;8.00;3.30;;;;;;;11.52;nan;100273.19;5053715;28;20056;-76
2022/10/25 21:08:48;;;;;;;7.15;3.05;;;;;;;11.45;nan;100267.28;5057832;28;20053;-77
2022/10/25 21:11:27;;;;;;;6.30;2.90;;;;;;;11.42;nan;100276.28;5053433;28;20057;-78
2022/10/25 21:14:30;;;;;;;;;;;;;;;;;;;;;
2022/10/25 21:24:08;;;;;;;5.63;2.95;;;;;;;11.31;nan;100265.44;4919310;28;20067;-79
2022/10/25 21:27:08;;;;;;;3.22;2.50;;;;;;;11.28;nan;100259.69;4919841;29;20056;-78
2022/10/25 21:29:50;;;;;;;7.00;2.97;;;;;;;11.25;nan;100258.34;4970171;28;20058;-78
2022/10/25 21:32:45;;;;;;;5.22;2.80;;;;;;;11.26;nan;100254.44;5043109;28;20059;-78
2022/10/25 21:38:32;;;;;;;6.50;2.50;;;;;;;11.23;nan;100246.72;5045988;28;20067;-80
2022/10/25 21:41:27;;;;;;;;;;;;;;;;;;;;;
2022/10/25 21:47:45;;;;;;;5.53;2.83;;;;;;;11.16;nan;100238.00;5032771;28;20057;-78
2022/10/25 21:50:29;;;;;;;6.00;2.67;;;;;;;11.13;nan;100241.47;5047283;28;20057;-78
2022/10/25 21:53:13;;;;;;;6.05;2.83;;;;;;;11.13;nan;100244.25;5062745;28;20425;-77
2022/10/25 21:59:16;;;;;;;7.45;3.38;;;;;;;11.10;nan;100231.75;5022731;28;20046;-78
2022/10/25 22:11:17;;;;;;;6.53;3.47;;;;;;;11.01;nan;100221.75;4962642;28;20051;-77
2022/10/25 22:13:54;;;;;;;6.72;2.55;;;;;;;10.99;nan;100229.59;4962237;28;20063;-78